createdAt,value
2022-12-17T00:00:51.042Z,0.05
2022-12-17T00:01:51.660Z,0.05
2022-12-17T00:02:52.015Z,0.05
2022-12-17T00:03:52.880Z,0.05
2022-12-17T00:04:52.743Z,0.05
2022-12-17T00:05:53.532Z,0.05
2022-12-17T00:06:54.578Z,0.05
2022-12-17T00:07:54.983Z,0.05
2022-12-17T00:08:55.856Z,0.05
2022-12-17T00:09:56.734Z,0.05
2022-12-17T00:10:56.727Z,0.05
2022-12-17T00:11:05.353Z,0.05
2022-12-17T00:12:05.443Z,0.05
2022-12-17T00:13:05.652Z,0.05
2022-12-17T00:14:06.104Z,0.05
2022-12-17T00:15:07.033Z,0.05
2022-12-17T00:16:07.923Z,0.05
2022-12-17T00:17:08.861Z,0.05
2022-12-17T00:18:09.808Z,0.05
2022-12-17T00:19:09.943Z,0.00
2022-12-17T00:20:09.954Z,0.00
2022-12-17T00:21:11.691Z,0.00
2022-12-17T00:22:11.003Z,0.00
2022-12-17T00:23:12.597Z,0.00
2022-12-17T00:24:13.201Z,0.00
2022-12-17T00:25:13.152Z,0.00
2022-12-17T00:26:13.768Z,0.00
2022-12-17T00:27:14.254Z,0.00
2022-12-17T00:28:15.319Z,0.00
2022-12-17T00:29:15.082Z,0.00
2022-12-17T00:30:15.784Z,0.00
2022-12-17T00:31:17.819Z,0.05
2022-12-17T00:32:17.700Z,0.05
2022-12-17T00:33:18.840Z,0.00
2022-12-17T00:34:18.530Z,0.00
2022-12-17T00:34:27.151Z,0.00
2022-12-17T00:35:28.828Z,0.00
2022-12-17T00:36:29.766Z,0.00
2022-12-17T00:37:30.501Z,0.00
2022-12-17T00:38:31.043Z,0.00
2022-12-17T00:39:30.924Z,0.00
2022-12-17T00:40:32.583Z,0.00
2022-12-17T00:41:32.187Z,0.00
2022-12-17T00:42:33.722Z,0.00
2022-12-17T00:43:34.156Z,0.00
2022-12-17T00:44:34.288Z,0.00
2022-12-17T00:45:35.949Z,0.00
2022-12-17T00:46:36.000Z,0.00
2022-12-17T00:47:36.742Z,0.00
2022-12-17T00:48:37.767Z,0.00
2022-12-17T00:49:37.824Z,0.00
2022-12-17T00:50:38.150Z,0.00
2022-12-17T00:51:39.840Z,0.00
2022-12-17T00:52:40.231Z,0.00
2022-12-17T00:53:40.057Z,0.00
2022-12-17T00:54:41.801Z,0.00
2022-12-17T00:54:50.429Z,0.00
2022-12-17T00:55:52.177Z,0.00
2022-12-17T00:56:52.780Z,0.00
2022-12-17T00:57:52.413Z,0.00
2022-12-17T00:58:52.994Z,0.00
2022-12-17T00:59:53.477Z,0.00
2022-12-17T01:00:55.223Z,0.00
2022-12-17T01:01:55.032Z,0.00
2022-12-17T01:02:55.626Z,0.00
2022-12-17T01:03:56.331Z,0.00
2022-12-17T01:04:57.317Z,0.00
2022-12-17T01:05:57.987Z,0.00
2022-12-17T01:06:59.009Z,0.00
2022-12-17T01:07:59.584Z,0.00
2022-12-17T01:08:58.603Z,0.00
2022-12-17T01:09:58.650Z,0.00
2022-12-17T01:10:59.414Z,0.00
2022-12-17T01:11:59.659Z,0.00
2022-12-17T01:13:00.811Z,0.00
2022-12-17T01:14:00.672Z,0.00
2022-12-17T01:15:01.608Z,0.00
2022-12-17T01:16:03.359Z,0.00
2022-12-17T01:17:03.146Z,0.00
2022-12-17T01:17:11.773Z,0.00
2022-12-17T01:18:12.840Z,0.00
2022-12-17T01:19:13.358Z,0.00
2022-12-17T01:20:13.165Z,0.00
2022-12-17T01:21:14.016Z,0.00
2022-12-17T01:22:14.781Z,0.00
2022-12-17T01:23:16.555Z,0.00
2022-12-17T01:24:16.269Z,0.00
2022-12-17T01:25:16.759Z,0.00
2022-12-17T01:26:17.266Z,0.00
2022-12-17T01:27:17.759Z,0.00
2022-12-17T01:28:18.544Z,0.00
2022-12-17T01:29:18.845Z,0.00
2022-12-17T01:30:20.775Z,0.00
2022-12-17T01:31:20.596Z,0.00
2022-12-17T01:32:20.623Z,0.00
2022-12-17T01:33:21.524Z,0.00
2022-12-17T01:34:23.406Z,0.00
2022-12-17T01:35:24.197Z,0.00
2022-12-17T01:36:23.908Z,0.00
2022-12-17T01:37:24.682Z,0.00
2022-12-17T01:38:26.635Z,0.00
2022-12-17T01:39:27.296Z,0.00
2022-12-17T01:40:28.192Z,0.00
2022-12-17T01:41:27.746Z,0.00
2022-12-17T01:41:36.372Z,0.00
2022-12-17T01:42:37.550Z,0.00
2022-12-17T01:43:38.260Z,0.00
2022-12-17T01:44:37.522Z,0.00
2022-12-17T01:45:39.470Z,0.00
2022-12-17T01:46:38.632Z,0.00
2022-12-17T01:47:40.020Z,0.00
2022-12-17T01:48:39.806Z,0.00
2022-12-17T01:49:41.699Z,0.00
2022-12-17T01:50:42.180Z,0.00
2022-12-17T01:51:41.910Z,0.00
2022-12-17T01:52:42.498Z,0.00
2022-12-17T01:53:43.169Z,0.00
2022-12-17T01:54:43.402Z,0.00
2022-12-17T01:55:44.162Z,0.00
2022-12-17T01:56:46.038Z,0.00
2022-12-17T01:57:45.962Z,0.00
2022-12-17T01:58:46.736Z,0.00
2022-12-17T01:59:48.611Z,0.00
2022-12-17T02:00:48.041Z,0.00
2022-12-17T02:01:48.639Z,0.00
2022-12-17T02:02:48.587Z,0.00
2022-12-17T02:03:48.685Z,0.00
2022-12-17T02:03:57.323Z,0.00
2022-12-17T02:04:57.370Z,0.00
2022-12-17T02:05:59.345Z,0.00
2022-12-17T02:06:58.749Z,0.00
2022-12-17T02:08:00.283Z,0.00
2022-12-17T02:09:00.918Z,0.00
2022-12-17T02:10:00.180Z,0.00
2022-12-17T02:11:01.286Z,0.00
2022-12-17T02:12:02.013Z,0.00
2022-12-17T02:13:01.552Z,0.00
2022-12-17T02:14:03.484Z,0.00
2022-12-17T02:15:02.923Z,0.00
2022-12-17T02:16:04.598Z,0.00
2022-12-17T02:17:03.913Z,0.00
2022-12-17T02:18:04.339Z,0.00
2022-12-17T02:19:06.097Z,0.00
2022-12-17T02:20:06.567Z,0.00
2022-12-17T02:21:07.308Z,0.00
2022-12-17T02:22:06.791Z,0.00
2022-12-17T02:23:07.686Z,0.00
2022-12-17T02:24:09.500Z,0.00
2022-12-17T02:25:10.316Z,0.00
2022-12-17T02:25:18.898Z,0.00
2022-12-17T02:26:20.497Z,0.00
2022-12-17T02:27:19.990Z,0.00
2022-12-17T02:28:20.705Z,0.00
2022-12-17T02:29:20.768Z,0.00
2022-12-17T02:30:21.529Z,0.00
2022-12-17T02:31:23.296Z,0.00
2022-12-17T02:32:22.970Z,0.00
2022-12-17T02:33:24.651Z,0.00
2022-12-17T02:34:24.798Z,0.00
2022-12-17T02:35:25.504Z,0.00
2022-12-17T02:36:25.467Z,0.00
2022-12-17T02:37:26.226Z,0.00
2022-12-17T02:38:27.708Z,0.00
2022-12-17T02:39:27.309Z,0.05
2022-12-17T02:40:28.080Z,0.05
2022-12-17T02:41:28.381Z,0.05
2022-12-17T02:42:29.294Z,0.05
2022-12-17T02:43:31.050Z,0.05
2022-12-17T02:44:30.390Z,0.05
2022-12-17T02:45:32.238Z,0.05
2022-12-17T02:46:31.984Z,0.05
2022-12-17T02:47:33.902Z,0.05
2022-12-17T02:47:43.087Z,0.05
2022-12-17T02:48:44.790Z,0.05
2022-12-17T02:49:45.214Z,0.05
2022-12-17T02:50:46.127Z,0.05
2022-12-17T02:51:46.708Z,0.05
2022-12-17T02:52:46.592Z,0.05
2022-12-17T02:53:47.581Z,0.05
2022-12-17T02:54:48.830Z,0.05
2022-12-17T02:55:49.284Z,0.05
2022-12-17T02:56:50.009Z,0.05
2022-12-17T02:57:53.750Z,0.05
2022-12-17T02:58:49.938Z,0.00
2022-12-17T02:59:51.062Z,0.00
2022-12-17T03:00:51.864Z,0.00
2022-12-17T03:01:51.598Z,0.05
2022-12-17T03:02:52.157Z,0.05
2022-12-17T03:03:52.053Z,0.00
2022-12-17T03:04:53.109Z,0.00
2022-12-17T03:05:53.837Z,0.00
2022-12-17T03:06:53.810Z,0.05
2022-12-17T03:07:54.549Z,0.05
2022-12-17T03:08:03.697Z,0.05
2022-12-17T03:09:04.684Z,0.05
2022-12-17T03:10:05.842Z,0.05
2022-12-17T03:11:05.733Z,0.05
2022-12-17T03:12:07.298Z,0.05
2022-12-17T03:13:07.434Z,0.05
2022-12-17T03:14:08.254Z,0.05
2022-12-17T03:15:08.124Z,0.05
2022-12-17T03:16:09.159Z,0.05
2022-12-17T03:17:08.302Z,0.05
2022-12-17T03:18:08.652Z,0.05
2022-12-17T03:19:09.529Z,0.05
2022-12-17T03:20:09.557Z,0.05
2022-12-17T03:21:10.194Z,0.05
2022-12-17T03:22:10.862Z,0.05
2022-12-17T03:23:11.426Z,0.05
2022-12-17T03:24:13.166Z,0.05
2022-12-17T03:25:12.477Z,0.05
2022-12-17T03:26:13.608Z,0.05
2022-12-17T03:27:13.144Z,0.05
2022-12-17T03:28:14.781Z,0.05
2022-12-17T03:29:15.221Z,0.05
2022-12-17T03:29:23.933Z,0.05
2022-12-17T03:30:24.311Z,0.05
2022-12-17T03:31:24.465Z,0.05
2022-12-17T03:32:24.937Z,0.05
2022-12-17T03:33:25.449Z,0.05
2022-12-17T03:34:26.343Z,0.05
2022-12-17T03:35:27.118Z,0.05
2022-12-17T03:36:27.999Z,0.05
2022-12-17T03:37:29.042Z,0.05
2022-12-17T03:38:28.011Z,0.05
2022-12-17T03:39:29.787Z,0.05
2022-12-17T03:40:28.953Z,0.05
2022-12-17T03:41:30.028Z,0.05
2022-12-17T03:42:30.668Z,0.05
2022-12-17T03:43:30.751Z,0.05
2022-12-17T03:44:31.053Z,0.05
2022-12-17T03:45:30.989Z,0.05
2022-12-17T03:46:31.573Z,0.00
2022-12-17T03:47:32.152Z,0.00
2022-12-17T03:48:32.829Z,0.05
2022-12-17T03:49:33.524Z,0.05
2022-12-17T03:50:34.596Z,0.00
2022-12-17T03:51:34.957Z,0.00
2022-12-17T03:52:34.905Z,0.00
2022-12-17T03:52:44.037Z,0.00
2022-12-17T03:53:45.010Z,0.00
2022-12-17T03:54:46.043Z,0.00
2022-12-17T03:55:46.369Z,0.05
2022-12-17T03:56:46.086Z,0.00
2022-12-17T03:58:47.475Z,0.05
2022-12-17T03:59:48.373Z,0.00
2022-12-17T04:00:50.183Z,0.05
2022-12-17T04:01:51.267Z,0.00
2022-12-17T04:02:50.645Z,0.05
2022-12-17T04:03:50.851Z,0.00
2022-12-17T04:04:51.317Z,0.00
2022-12-17T04:05:51.863Z,0.00
2022-12-17T04:06:53.854Z,0.00
2022-12-17T04:07:53.568Z,0.00
2022-12-17T04:08:54.124Z,0.00
2022-12-17T04:09:54.291Z,0.00
2022-12-17T04:10:54.871Z,0.00
2022-12-17T04:11:55.585Z,0.00
2022-12-17T04:12:55.794Z,0.00
2022-12-17T04:13:57.444Z,0.00
2022-12-17T04:14:57.120Z,0.00
2022-12-17T04:15:58.051Z,0.00
2022-12-17T04:16:58.655Z,0.00
2022-12-17T04:17:58.821Z,0.00
2022-12-17T04:18:59.726Z,0.00
2022-12-17T04:20:01.294Z,0.00
2022-12-17T04:21:01.200Z,0.00
2022-12-17T04:22:02.039Z,0.00
2022-12-17T04:23:02.885Z,0.00
2022-12-17T04:24:03.697Z,0.00
2022-12-17T04:24:12.326Z,0.00
2022-12-17T04:25:14.088Z,0.00
2022-12-17T04:26:15.071Z,0.00
2022-12-17T04:27:14.821Z,0.00
2022-12-17T04:28:15.553Z,0.00
2022-12-17T04:29:17.378Z,0.00
2022-12-17T04:30:16.462Z,0.00
2022-12-17T04:31:16.822Z,0.00
2022-12-17T04:32:17.516Z,0.00
2022-12-17T04:33:18.547Z,0.00
2022-12-17T04:34:25.950Z,0.00
2022-12-17T04:35:18.987Z,0.00
2022-12-17T04:36:20.450Z,0.00
2022-12-17T04:37:20.195Z,0.05
2022-12-17T04:38:20.920Z,0.05
2022-12-17T04:39:21.609Z,0.05
2022-12-17T04:40:23.346Z,0.05
2022-12-17T04:41:23.171Z,0.00
2022-12-17T04:42:23.407Z,0.00
2022-12-17T04:43:23.960Z,0.00
2022-12-17T04:44:24.584Z,0.00
2022-12-17T04:45:24.896Z,0.05
2022-12-17T04:46:26.731Z,0.05
2022-12-17T04:47:26.052Z,0.05
2022-12-17T04:48:27.844Z,0.00
2022-12-17T04:49:27.263Z,0.05
2022-12-17T04:49:35.947Z,0.05
2022-12-17T04:50:36.723Z,0.00
2022-12-17T04:51:37.185Z,0.00
2022-12-17T04:52:37.455Z,0.00
2022-12-17T04:53:38.453Z,0.05
2022-12-17T04:54:38.258Z,0.00
2022-12-17T04:55:38.757Z,0.00
2022-12-17T04:56:39.153Z,0.00
2022-12-17T04:57:40.060Z,0.00
2022-12-17T04:58:41.580Z,0.00
2022-12-17T04:59:41.101Z,0.00
2022-12-17T05:00:42.227Z,0.00
2022-12-17T05:01:42.336Z,0.00
2022-12-17T05:02:42.950Z,0.00
2022-12-17T05:03:42.828Z,0.00
2022-12-17T05:04:43.449Z,0.00
2022-12-17T05:05:44.126Z,0.00
2022-12-17T05:06:45.028Z,0.00
2022-12-17T05:07:45.829Z,0.00
2022-12-17T05:08:46.230Z,0.00
2022-12-17T05:09:46.648Z,0.00
2022-12-17T05:10:48.064Z,0.00
2022-12-17T05:11:47.493Z,0.00
2022-12-17T05:12:47.997Z,0.00
2022-12-17T05:13:49.539Z,0.00
2022-12-17T05:14:49.208Z,0.00
2022-12-17T05:14:57.992Z,0.00
2022-12-17T05:15:58.592Z,0.00
2022-12-17T05:16:59.263Z,0.00
2022-12-17T05:18:00.013Z,0.00
2022-12-17T05:19:00.172Z,0.00
2022-12-17T05:20:01.767Z,0.00
2022-12-17T05:21:01.656Z,0.00
2022-12-17T05:22:02.310Z,0.00
2022-12-17T05:23:03.581Z,0.00
2022-12-17T05:24:03.703Z,0.00
2022-12-17T05:25:03.109Z,0.00
2022-12-17T05:26:03.441Z,0.00
2022-12-17T05:27:04.602Z,0.00
2022-12-17T05:28:05.151Z,0.00
2022-12-17T05:29:05.191Z,0.00
2022-12-17T05:30:07.007Z,0.00
2022-12-17T05:31:06.659Z,0.00
2022-12-17T05:32:06.822Z,0.00
2022-12-17T05:33:08.345Z,0.00
2022-12-17T05:34:08.155Z,0.00
2022-12-17T05:35:08.965Z,0.00
2022-12-17T05:36:09.724Z,0.00
2022-12-17T05:37:10.049Z,0.00
2022-12-17T05:37:18.734Z,0.00
2022-12-17T05:38:18.791Z,0.00
2022-12-17T05:39:19.732Z,0.00
2022-12-17T05:40:19.931Z,0.00
2022-12-17T05:41:20.019Z,0.00
2022-12-17T05:42:20.906Z,0.00
2022-12-17T05:43:22.765Z,0.00
2022-12-17T05:44:23.327Z,0.00
2022-12-17T05:45:23.232Z,0.00
2022-12-17T05:46:23.978Z,0.00
2022-12-17T05:47:24.418Z,0.00
2022-12-17T05:48:24.947Z,0.00
2022-12-17T05:49:26.391Z,0.00
2022-12-17T05:50:26.957Z,0.00
2022-12-17T05:51:27.385Z,0.00
2022-12-17T05:52:28.102Z,0.00
2022-12-17T05:53:27.355Z,0.00
2022-12-17T05:54:28.753Z,0.00
2022-12-17T05:55:27.870Z,0.00
2022-12-17T05:56:28.382Z,0.00
2022-12-17T05:57:32.363Z,0.00
2022-12-17T05:58:29.722Z,0.00
2022-12-17T05:59:30.211Z,0.00
2022-12-17T06:00:32.006Z,0.00
2022-12-17T06:01:32.818Z,0.00
2022-12-17T06:01:45.452Z,0.00
2022-12-17T06:02:46.205Z,0.00
2022-12-17T06:03:46.726Z,0.00
2022-12-17T06:04:47.482Z,0.00
2022-12-17T06:05:48.042Z,0.00
2022-12-17T06:06:48.262Z,0.00
2022-12-17T06:07:48.937Z,0.00
2022-12-17T06:08:49.602Z,0.00
2022-12-17T06:09:50.558Z,0.00
2022-12-17T06:10:51.161Z,0.00
2022-12-17T06:11:51.847Z,0.00
2022-12-17T06:12:52.316Z,0.00
2022-12-17T06:13:53.962Z,0.05
2022-12-17T06:14:54.378Z,0.05
2022-12-17T06:15:55.312Z,0.05
2022-12-17T06:16:54.970Z,0.05
2022-12-17T06:17:55.037Z,0.05
2022-12-17T06:18:55.875Z,0.05
2022-12-17T06:19:55.954Z,0.05
2022-12-17T06:20:56.852Z,0.05
2022-12-17T06:21:57.719Z,0.05
2022-12-17T06:22:58.345Z,0.05
2022-12-17T06:23:58.445Z,0.05
2022-12-17T06:24:58.957Z,0.05
2022-12-17T06:25:59.018Z,0.05
2022-12-17T06:27:00.021Z,0.05
2022-12-17T06:28:00.538Z,0.05
2022-12-17T06:29:01.157Z,0.05
2022-12-17T06:29:09.753Z,0.05
2022-12-17T06:30:14.269Z,0.09
2022-12-17T06:31:11.280Z,0.09
2022-12-17T06:32:11.770Z,0.09
2022-12-17T06:33:12.652Z,0.09
2022-12-17T06:34:14.629Z,0.14
2022-12-17T06:35:14.827Z,0.14
2022-12-17T06:36:21.610Z,0.14
2022-12-17T06:37:15.622Z,0.18
2022-12-17T06:38:16.281Z,0.18
2022-12-17T06:39:16.273Z,0.22
2022-12-17T06:40:17.706Z,0.27
2022-12-17T06:41:17.427Z,0.31
2022-12-17T06:42:18.202Z,0.41
2022-12-17T06:43:27.257Z,0.45
2022-12-17T06:44:19.455Z,0.54
2022-12-17T06:45:20.376Z,0.58
2022-12-17T06:46:21.304Z,0.68
2022-12-17T06:47:21.877Z,0.81
2022-12-17T06:48:22.603Z,0.94
2022-12-17T06:49:23.520Z,1.17
2022-12-17T06:50:24.300Z,1.35
2022-12-17T06:51:25.941Z,1.53
2022-12-17T06:52:25.739Z,1.80
2022-12-17T06:52:34.485Z,1.85
2022-12-17T06:53:35.391Z,2.16
2022-12-17T06:54:35.641Z,2.52
2022-12-17T06:55:36.249Z,2.97
2022-12-17T06:56:36.593Z,3.56
2022-12-17T06:57:40.783Z,4.23
2022-12-17T06:58:37.915Z,5.09
2022-12-17T06:59:38.828Z,5.99
2022-12-17T07:00:39.480Z,7.11
2022-12-17T07:01:39.980Z,8.32
2022-12-17T07:02:40.566Z,9.68
2022-12-17T07:03:41.082Z,11.11
2022-12-17T07:04:42.400Z,12.78
2022-12-17T07:05:42.239Z,14.85
2022-12-17T07:06:44.072Z,17.10
2022-12-17T07:07:43.710Z,19.89
2022-12-17T07:08:45.580Z,23.04
2022-12-17T07:09:45.689Z,26.28
2022-12-17T07:10:45.355Z,29.88
2022-12-17T07:13:03.211Z,38.70
2022-12-17T07:14:03.114Z,43.02
2022-12-17T07:15:03.778Z,48.24
2022-12-17T07:16:04.857Z,54.00
2022-12-17T07:17:05.108Z,60.84
2022-12-17T07:18:05.362Z,68.76
2022-12-17T07:19:05.772Z,77.40
2022-12-17T07:20:07.162Z,85.68
2022-12-17T07:21:06.396Z,94.32
2022-12-17T07:22:07.156Z,104.40
2022-12-17T07:23:08.171Z,115.20
2022-12-17T07:24:08.722Z,126.72
2022-12-17T07:25:09.322Z,138.96
2022-12-17T07:26:10.801Z,151.92
2022-12-17T07:27:10.235Z,163.44
2022-12-17T07:28:10.765Z,173.52
2022-12-17T07:29:11.346Z,183.60
2022-12-17T07:30:12.070Z,195.84
2022-12-17T07:31:13.626Z,207.36
2022-12-17T07:32:13.108Z,220.32
2022-12-17T07:33:14.566Z,237.60
2022-12-17T07:34:14.043Z,254.88
2022-12-17T07:35:14.695Z,276.48
2022-12-17T07:36:15.560Z,298.08
2022-12-17T07:37:20.298Z,321.12
2022-12-17T07:38:16.709Z,342.72
2022-12-17T07:39:17.410Z,361.44
2022-12-17T07:40:17.762Z,377.28
2022-12-17T07:40:26.411Z,380.16
2022-12-17T07:41:26.502Z,391.68
2022-12-17T07:42:27.323Z,403.20
2022-12-17T07:43:28.283Z,417.60
2022-12-17T07:44:29.156Z,429.12
2022-12-17T07:45:29.267Z,446.40
2022-12-17T07:46:29.715Z,469.44
2022-12-17T07:47:30.218Z,495.36
2022-12-17T07:48:30.666Z,521.28
2022-12-17T07:49:31.536Z,541.44
2022-12-17T07:50:32.432Z,567.36
2022-12-17T07:51:34.193Z,590.40
2022-12-17T07:52:34.608Z,613.44
2022-12-17T07:53:35.558Z,639.36
2022-12-17T07:54:35.991Z,668.16
2022-12-17T07:55:35.454Z,696.96
2022-12-17T07:56:36.472Z,725.76
2022-12-17T07:57:42.180Z,766.08
2022-12-17T07:58:37.595Z,789.12
2022-12-17T07:59:37.959Z,817.92
2022-12-17T08:00:38.524Z,840.96
2022-12-17T08:01:40.079Z,864.00
2022-12-17T08:02:39.634Z,892.80
2022-12-17T08:03:40.735Z,927.36
2022-12-17T08:04:40.634Z,956.16
2022-12-17T08:05:42.309Z,990.72
2022-12-17T08:05:51.008Z,996.48
2022-12-17T08:06:55.113Z,1140.48
2022-12-17T08:07:52.092Z,1152.00
2022-12-17T08:08:53.841Z,1146.24
2022-12-17T08:09:52.915Z,1134.72
2022-12-17T08:10:53.229Z,1140.48
2022-12-17T08:11:53.389Z,1169.28
2022-12-17T08:12:54.339Z,1221.12
2022-12-17T08:13:55.657Z,1307.52
2022-12-17T08:14:55.007Z,1393.92
2022-12-17T08:15:55.412Z,1509.12
2022-12-17T08:16:56.436Z,1589.76
2022-12-17T08:17:56.864Z,1612.80
2022-12-17T08:18:56.913Z,1589.76
2022-12-17T08:19:58.381Z,1566.72
2022-12-17T08:20:59.210Z,1578.24
2022-12-17T08:21:58.363Z,1635.84
2022-12-17T08:22:59.133Z,1670.40
2022-12-17T08:23:59.758Z,1716.48
2022-12-17T08:25:00.146Z,1774.08
2022-12-17T08:26:00.906Z,1843.20
2022-12-17T08:27:01.527Z,1877.76
2022-12-17T08:28:04.552Z,1900.80
2022-12-17T08:29:02.443Z,1946.88
2022-12-17T08:30:03.159Z,1969.92
2022-12-17T08:31:05.068Z,1981.44
2022-12-17T08:31:13.744Z,1981.44
2022-12-17T08:32:14.349Z,2004.48
2022-12-17T08:33:15.021Z,1992.96
2022-12-17T08:34:15.487Z,2016.00
2022-12-17T08:35:16.024Z,2073.60
2022-12-17T08:36:16.878Z,2200.32
2022-12-17T08:37:17.472Z,2338.56
2022-12-17T08:38:17.847Z,2419.20
2022-12-17T08:39:18.757Z,2476.80
2022-12-17T08:40:19.500Z,2522.88
2022-12-17T08:41:19.611Z,2557.44
2022-12-17T08:42:19.647Z,2557.44
2022-12-17T08:43:20.523Z,2545.92
2022-12-17T08:44:22.396Z,2534.40
2022-12-17T08:45:22.921Z,2522.88
2022-12-17T08:46:23.975Z,2557.44
2022-12-17T08:47:23.036Z,2592.00
2022-12-17T08:48:23.701Z,2649.60
2022-12-17T08:49:25.543Z,2695.68
2022-12-17T08:50:24.561Z,2787.84
2022-12-17T08:51:25.635Z,2868.48
2022-12-17T08:52:25.621Z,2949.12
2022-12-17T08:53:29.515Z,3064.32
2022-12-17T08:54:26.793Z,3110.40
2022-12-17T08:55:27.548Z,3133.44
2022-12-17T08:55:36.220Z,3156.48
2022-12-17T08:56:36.873Z,3248.64
2022-12-17T08:57:37.118Z,3456.00
2022-12-17T08:58:37.411Z,3663.36
2022-12-17T08:59:37.367Z,3778.56
2022-12-17T09:00:37.870Z,3824.64
2022-12-17T09:01:38.658Z,3778.56
2022-12-17T09:02:38.848Z,3686.40
2022-12-17T09:03:40.214Z,3663.36
2022-12-17T09:04:40.258Z,3594.24
2022-12-17T09:05:41.102Z,3594.24
2022-12-17T09:06:41.829Z,3663.36
2022-12-17T09:07:42.858Z,3801.60
2022-12-17T09:08:42.398Z,3962.88
2022-12-17T09:09:42.667Z,4101.12
2022-12-17T09:10:43.148Z,4193.28
2022-12-17T09:11:44.119Z,4170.24
2022-12-17T09:12:44.596Z,4101.12
2022-12-17T09:13:45.147Z,3962.88
2022-12-17T09:14:45.837Z,3778.56
2022-12-17T09:15:47.807Z,3663.36
2022-12-17T09:16:47.622Z,3617.28
2022-12-17T09:17:48.469Z,3617.28
2022-12-17T09:18:49.035Z,3686.40
2022-12-17T09:19:49.155Z,3732.48
2022-12-17T09:20:49.764Z,3709.44
2022-12-17T09:21:50.509Z,3663.36
2022-12-17T09:22:50.612Z,3502.08
2022-12-17T09:22:59.262Z,3479.04
2022-12-17T09:24:00.218Z,3340.80
2022-12-17T09:25:00.913Z,3294.72
2022-12-17T09:26:01.048Z,3386.88
2022-12-17T09:27:01.090Z,3640.32
2022-12-17T09:28:01.448Z,3870.72
2022-12-17T09:29:02.141Z,4032.00
2022-12-17T09:30:03.161Z,4147.20
2022-12-17T09:31:03.948Z,4124.16
2022-12-17T09:32:04.626Z,4170.24
2022-12-17T09:33:04.651Z,4124.16
2022-12-17T09:34:05.058Z,4078.08
2022-12-17T09:35:07.089Z,4124.16
2022-12-17T09:36:07.127Z,4170.24
2022-12-17T09:37:07.350Z,4262.40
2022-12-17T09:38:06.421Z,4308.48
2022-12-17T09:39:08.029Z,4285.44
2022-12-17T09:40:07.080Z,4285.44
2022-12-17T09:41:08.967Z,4193.28
2022-12-17T09:42:08.387Z,4101.12
2022-12-17T09:43:10.254Z,4078.08
2022-12-17T09:44:09.953Z,4055.04
2022-12-17T09:45:10.867Z,4147.20
2022-12-17T09:46:12.547Z,4239.36
2022-12-17T09:46:21.307Z,4262.40
2022-12-17T09:47:21.207Z,4308.48
2022-12-17T09:48:22.030Z,4354.56
2022-12-17T09:49:23.910Z,4538.88
2022-12-17T09:50:22.988Z,4792.32
2022-12-17T09:51:24.130Z,5045.76
2022-12-17T09:52:23.418Z,5068.80
2022-12-17T09:53:23.870Z,5137.92
2022-12-17T09:54:24.577Z,5253.12
2022-12-17T09:55:24.937Z,5299.20
2022-12-17T09:56:26.673Z,5253.12
2022-12-17T09:57:26.818Z,5137.92
2022-12-17T09:58:27.643Z,5022.72
2022-12-17T09:59:26.476Z,4999.68
2022-12-17T10:00:27.635Z,4930.56
2022-12-17T10:01:27.530Z,4907.52
2022-12-17T10:02:28.166Z,4999.68
2022-12-17T10:03:28.357Z,5114.88
2022-12-17T10:04:28.969Z,5276.16
2022-12-17T10:05:29.853Z,5391.36
2022-12-17T10:06:30.507Z,5460.48
2022-12-17T10:07:32.074Z,5667.84
2022-12-17T10:08:31.714Z,5736.96
2022-12-17T10:09:32.443Z,5575.68
2022-12-17T10:10:33.267Z,5414.40
2022-12-17T10:10:43.947Z,5391.36
2022-12-17T10:11:44.618Z,5230.08
2022-12-17T10:12:45.503Z,5068.80
2022-12-17T10:13:46.231Z,5022.72
2022-12-17T10:14:46.561Z,5114.88
2022-12-17T10:15:47.375Z,5160.96
2022-12-17T10:16:48.231Z,5160.96
2022-12-17T10:17:48.975Z,5137.92
2022-12-17T10:18:49.709Z,5114.88
2022-12-17T10:19:50.534Z,5207.04
2022-12-17T10:20:51.237Z,5299.20
2022-12-17T10:21:51.488Z,5414.40
2022-12-17T10:22:52.374Z,5437.44
2022-12-17T10:23:52.590Z,5414.40
2022-12-17T10:24:53.113Z,5322.24
2022-12-17T10:25:53.650Z,5207.04
2022-12-17T10:26:54.540Z,5114.88
2022-12-17T10:27:55.522Z,5091.84
2022-12-17T10:28:56.356Z,5091.84
2022-12-17T10:29:56.905Z,5091.84
2022-12-17T10:30:57.955Z,5068.80
2022-12-17T10:31:58.751Z,5022.72
2022-12-17T10:32:59.780Z,4930.56
2022-12-17T10:34:00.604Z,4815.36
2022-12-17T10:35:05.223Z,4746.24
2022-12-17T10:36:01.637Z,4723.20
2022-12-17T10:37:02.558Z,4746.24
2022-12-17T10:38:03.559Z,4654.08
2022-12-17T10:39:03.915Z,4631.04
2022-12-17T10:40:04.856Z,4608.00
2022-12-17T10:41:05.171Z,4608.00
2022-12-17T10:42:05.715Z,4538.88
2022-12-17T10:42:17.915Z,4538.88
2022-12-17T10:43:18.617Z,4538.88
2022-12-17T10:44:19.311Z,4515.84
2022-12-17T10:45:19.275Z,4608.00
2022-12-17T10:46:20.003Z,4700.16
2022-12-17T10:47:20.728Z,4815.36
2022-12-17T10:48:21.646Z,4861.44
2022-12-17T10:49:21.843Z,4861.44
2022-12-17T10:50:22.437Z,4861.44
2022-12-17T10:51:23.227Z,4815.36
2022-12-17T10:52:23.885Z,4769.28
2022-12-17T10:53:24.588Z,4838.40
2022-12-17T10:54:25.190Z,4953.60
2022-12-17T10:55:26.018Z,4976.64
2022-12-17T10:56:27.901Z,5091.84
2022-12-17T10:57:27.544Z,5114.88
2022-12-17T10:58:28.228Z,5207.04
2022-12-17T10:59:29.290Z,5345.28
2022-12-17T11:00:29.849Z,5437.44
2022-12-17T11:01:30.498Z,5621.76
2022-12-17T11:02:31.119Z,5806.08
2022-12-17T11:03:31.481Z,5898.24
2022-12-17T11:04:32.346Z,5944.32
2022-12-17T11:05:32.926Z,5760.00
2022-12-17T11:06:36.214Z,5506.56
2022-12-17T11:07:33.028Z,5184.00
2022-12-17T11:08:33.734Z,4976.64
2022-12-17T11:09:33.830Z,4861.44
2022-12-17T11:10:34.553Z,4815.36
2022-12-17T11:10:47.701Z,4838.40
2022-12-17T11:11:48.494Z,5091.84
2022-12-17T11:12:49.157Z,5322.24
2022-12-17T11:13:49.456Z,5460.48
2022-12-17T11:14:49.624Z,5414.40
2022-12-17T11:15:50.195Z,5253.12
2022-12-17T11:16:50.287Z,5068.80
2022-12-17T11:17:50.803Z,4838.40
2022-12-17T11:18:51.417Z,4723.20
2022-12-17T11:19:52.236Z,4769.28
2022-12-17T11:20:52.879Z,4861.44
2022-12-17T11:21:53.800Z,5022.72
2022-12-17T11:22:54.480Z,5160.96
2022-12-17T11:23:55.001Z,5391.36
2022-12-17T11:24:55.548Z,5621.76
2022-12-17T11:25:56.332Z,5690.88
2022-12-17T11:26:57.257Z,5783.04
2022-12-17T11:27:57.459Z,5713.92
2022-12-17T11:28:58.133Z,5575.68
2022-12-17T11:29:58.452Z,5460.48
2022-12-17T11:30:59.022Z,5345.28
2022-12-17T11:31:59.645Z,5322.24
2022-12-17T11:33:00.040Z,5345.28
2022-12-17T11:34:00.552Z,5506.56
2022-12-17T11:35:01.267Z,5690.88
2022-12-17T11:36:02.061Z,5736.96
2022-12-17T11:37:02.895Z,5898.24
2022-12-17T11:38:03.522Z,5898.24
2022-12-17T11:39:04.010Z,5783.04
2022-12-17T11:40:04.043Z,5852.16
2022-12-17T11:40:18.204Z,5852.16
2022-12-17T11:41:19.051Z,5806.08
2022-12-17T11:42:19.429Z,5829.12
2022-12-17T11:43:20.256Z,5644.80
2022-12-17T11:44:20.925Z,5575.68
2022-12-17T11:45:21.715Z,5575.68
2022-12-17T11:46:22.440Z,5898.24
2022-12-17T11:47:22.467Z,6266.88
2022-12-17T11:48:23.300Z,6451.20
2022-12-17T11:49:23.802Z,6543.36
2022-12-17T11:50:23.842Z,6773.76
2022-12-17T11:51:24.352Z,7004.16
2022-12-17T11:52:25.089Z,6958.08
2022-12-17T11:53:28.121Z,7004.16
2022-12-17T11:54:26.006Z,7096.32
2022-12-17T11:55:26.731Z,7188.48
2022-12-17T11:56:27.365Z,6958.08
2022-12-17T11:57:28.123Z,6727.68
2022-12-17T11:58:28.740Z,6635.52
2022-12-17T11:59:28.977Z,6543.36
2022-12-17T12:00:29.737Z,6359.04
2022-12-17T12:01:29.903Z,6220.80
2022-12-17T12:02:30.185Z,6266.88
2022-12-17T12:03:30.476Z,6405.12
2022-12-17T12:04:30.432Z,6681.60
2022-12-17T12:05:31.363Z,6589.44
2022-12-17T12:06:32.324Z,6727.68
2022-12-17T12:07:32.400Z,6635.52
2022-12-17T12:08:33.178Z,6543.36
2022-12-17T12:09:34.005Z,6128.64
2022-12-17T12:10:34.780Z,5829.12
2022-12-17T12:11:35.742Z,5713.92
2022-12-17T12:11:51.958Z,5690.88
2022-12-17T12:12:52.391Z,5690.88
2022-12-17T12:13:52.214Z,5783.04
2022-12-17T12:14:52.339Z,5852.16
2022-12-17T12:15:52.620Z,5944.32
2022-12-17T12:16:53.061Z,5898.24
2022-12-17T12:17:53.323Z,5875.20
2022-12-17T12:18:54.304Z,5852.16
2022-12-17T12:19:55.054Z,5690.88
2022-12-17T12:20:55.190Z,5460.48
2022-12-17T12:21:56.774Z,5160.96
2022-12-17T12:22:56.581Z,4884.48
2022-12-17T12:23:56.956Z,4769.28
2022-12-17T12:24:57.266Z,4792.32
2022-12-17T12:25:59.262Z,4861.44
2022-12-17T12:26:59.135Z,5091.84
2022-12-17T12:27:59.429Z,5368.32
2022-12-17T12:29:00.150Z,5690.88
2022-12-17T12:30:00.185Z,5944.32
2022-12-17T12:31:00.846Z,6036.48
2022-12-17T12:32:00.998Z,5990.40
2022-12-17T12:33:05.604Z,5898.24